sensor_id;sensor_type;location;lat;lon;timestamp;temperature;humidity
27492;DHT22;14927;51.210;6.838;2022-09-12T00:00:28;19.60;62.70
27492;DHT22;14927;51.210;6.838;2022-09-12T00:03:15;19.60;62.60
27492;DHT22;14927;51.210;6.838;2022-09-12T00:06:00;19.60;62.70
27492;DHT22;14927;51.210;6.838;2022-09-12T00:08:44;19.50;62.60
27492;DHT22;14927;51.210;6.838;2022-09-12T00:11:29;19.50;62.70
27492;DHT22;14927;51.210;6.838;2022-09-12T00:14:16;19.50;62.80
27492;DHT22;14927;51.210;6.838;2022-09-12T00:17:01;19.50;63.00
27492;DHT22;14927;51.210;6.838;2022-09-12T00:19:46;19.40;63.10
27492;DHT22;14927;51.210;6.838;2022-09-12T00:22:31;19.40;63.20
27492;DHT22;14927;51.210;6.838;2022-09-12T00:25:17;19.30;63.20
27492;DHT22;14927;51.210;6.838;2022-09-12T00:28:01;19.40;63.30
27492;DHT22;14927;51.210;6.838;2022-09-12T00:30:47;19.30;63.20
27492;DHT22;14927;51.210;6.838;2022-09-12T00:33:32;19.30;63.10
27492;DHT22;14927;51.210;6.838;2022-09-12T00:36:19;19.30;63.30
27492;DHT22;14927;51.210;6.838;2022-09-12T00:39:06;19.20;63.60
27492;DHT22;14927;51.210;6.838;2022-09-12T00:41:51;19.20;63.60
27492;DHT22;14927;51.210;6.838;2022-09-12T00:47:24;19.20;63.80
27492;DHT22;14927;51.210;6.838;2022-09-12T00:50:12;19.20;63.80
27492;DHT22;14927;51.210;6.838;2022-09-12T00:53:03;19.10;63.60
27492;DHT22;14927;51.210;6.838;2022-09-12T00:55:50;19.10;63.60
27492;DHT22;14927;51.210;6.838;2022-09-12T00:58:40;19.10;63.50
27492;DHT22;14927;51.210;6.838;2022-09-12T01:01:28;19.10;63.50
27492;DHT22;14927;51.210;6.838;2022-09-12T01:04:13;19.00;63.50
27492;DHT22;14927;51.210;6.838;2022-09-12T01:06:58;19.00;63.50
27492;DHT22;14927;51.210;6.838;2022-09-12T01:09:43;19.00;63.50
27492;DHT22;14927;51.210;6.838;2022-09-12T01:12:30;19.00;63.50
27492;DHT22;14927;51.210;6.838;2022-09-12T01:15:16;19.00;63.60
27492;DHT22;14927;51.210;6.838;2022-09-12T01:18:23;18.90;63.60
27492;DHT22;14927;51.210;6.838;2022-09-12T01:24:31;18.90;63.50
27492;DHT22;14927;51.210;6.838;2022-09-12T01:27:56;18.90;63.50
27492;DHT22;14927;51.210;6.838;2022-09-12T01:31:01;18.90;63.80
27492;DHT22;14927;51.210;6.838;2022-09-12T01:37:14;18.80;63.90
27492;DHT22;14927;51.210;6.838;2022-09-12T01:40:13;18.80;63.50
27492;DHT22;14927;51.210;6.838;2022-09-12T01:49:26;18.70;63.30
27492;DHT22;14927;51.210;6.838;2022-09-12T01:52:24;18.70;63.50
27492;DHT22;14927;51.210;6.838;2022-09-12T01:56:04;18.60;63.40
27492;DHT22;14927;51.210;6.838;2022-09-12T01:58:55;18.60;63.30
27492;DHT22;14927;51.210;6.838;2022-09-12T02:02:07;18.60;63.70
27492;DHT22;14927;51.210;6.838;2022-09-12T02:05:41;18.60;63.70
27492;DHT22;14927;51.210;6.838;2022-09-12T02:08:41;18.50;63.80
27492;DHT22;14927;51.210;6.838;2022-09-12T02:11:30;18.50;63.80
27492;DHT22;14927;51.210;6.838;2022-09-12T02:14:24;18.50;63.80
27492;DHT22;14927;51.210;6.838;2022-09-12T02:17:16;18.50;64.00
27492;DHT22;14927;51.210;6.838;2022-09-12T02:20:11;18.40;64.00
27492;DHT22;14927;51.210;6.838;2022-09-12T02:23:00;18.40;64.10
27492;DHT22;14927;51.210;6.838;2022-09-12T02:25:50;18.40;64.00
27492;DHT22;14927;51.210;6.838;2022-09-12T02:28:40;18.40;64.10
27492;DHT22;14927;51.210;6.838;2022-09-12T02:37:52;18.40;64.80
27492;DHT22;14927;51.210;6.838;2022-09-12T02:40:47;18.30;65.00
27492;DHT22;14927;51.210;6.838;2022-09-12T02:43:32;18.40;64.70
27492;DHT22;14927;51.210;6.838;2022-09-12T02:46:47;18.30;64.60
27492;DHT22;14927;51.210;6.838;2022-09-12T02:49:31;18.30;64.70
27492;DHT22;14927;51.210;6.838;2022-09-12T02:52:16;18.30;64.60
27492;DHT22;14927;51.210;6.838;2022-09-12T02:55:03;18.30;64.50
27492;DHT22;14927;51.210;6.838;2022-09-12T02:57:48;18.30;64.50
27492;DHT22;14927;51.210;6.838;2022-09-12T03:00:38;18.30;64.50
27492;DHT22;14927;51.210;6.838;2022-09-12T03:07:10;18.20;64.40
27492;DHT22;14927;51.210;6.838;2022-09-12T03:12:38;18.20;64.50
27492;DHT22;14927;51.210;6.838;2022-09-12T03:18:49;18.20;64.70
27492;DHT22;14927;51.210;6.838;2022-09-12T03:25:21;18.10;64.60
27492;DHT22;14927;51.210;6.838;2022-09-12T03:28:15;18.10;64.60
27492;DHT22;14927;51.210;6.838;2022-09-12T03:31:14;18.10;64.60
27492;DHT22;14927;51.210;6.838;2022-09-12T03:33:59;18.10;64.70
27492;DHT22;14927;51.210;6.838;2022-09-12T03:36:44;18.00;64.80
27492;DHT22;14927;51.210;6.838;2022-09-12T03:39:29;18.00;64.80
27492;DHT22;14927;51.210;6.838;2022-09-12T03:42:13;18.00;65.90
27492;DHT22;14927;51.210;6.838;2022-09-12T03:44:58;18.00;65.30
27492;DHT22;14927;51.210;6.838;2022-09-12T03:47:43;18.00;65.40
27492;DHT22;14927;51.210;6.838;2022-09-12T03:50:28;18.00;65.70
27492;DHT22;14927;51.210;6.838;2022-09-12T03:53:12;18.00;65.70
27492;DHT22;14927;51.210;6.838;2022-09-12T03:55:57;18.00;65.70
27492;DHT22;14927;51.210;6.838;2022-09-12T03:58:42;18.00;65.70
27492;DHT22;14927;51.210;6.838;2022-09-12T04:01:26;18.00;65.70
27492;DHT22;14927;51.210;6.838;2022-09-12T04:04:11;18.00;65.80
27492;DHT22;14927;51.210;6.838;2022-09-12T04:06:56;18.00;65.90
27492;DHT22;14927;51.210;6.838;2022-09-12T04:09:41;18.10;65.90
27492;DHT22;14927;51.210;6.838;2022-09-12T04:12:25;18.00;65.90
27492;DHT22;14927;51.210;6.838;2022-09-12T04:15:10;18.10;66.00
27492;DHT22;14927;51.210;6.838;2022-09-12T04:17:57;18.10;66.00
27492;DHT22;14927;51.210;6.838;2022-09-12T04:20:42;18.10;65.90
27492;DHT22;14927;51.210;6.838;2022-09-12T04:23:26;18.00;65.90
27492;DHT22;14927;51.210;6.838;2022-09-12T04:26:11;18.10;65.80
27492;DHT22;14927;51.210;6.838;2022-09-12T04:28:57;18.00;65.70
27492;DHT22;14927;51.210;6.838;2022-09-12T04:31:43;18.10;65.70
27492;DHT22;14927;51.210;6.838;2022-09-12T04:34:30;18.00;65.70
27492;DHT22;14927;51.210;6.838;2022-09-12T04:37:15;18.10;65.90
27492;DHT22;14927;51.210;6.838;2022-09-12T04:40:00;18.10;66.00
27492;DHT22;14927;51.210;6.838;2022-09-12T04:42:45;18.10;66.10
27492;DHT22;14927;51.210;6.838;2022-09-12T04:45:30;18.10;66.20
27492;DHT22;14927;51.210;6.838;2022-09-12T04:48:14;18.10;66.30
27492;DHT22;14927;51.210;6.838;2022-09-12T04:51:29;18.00;66.20
27492;DHT22;14927;51.210;6.838;2022-09-12T04:54:17;18.10;66.40
27492;DHT22;14927;51.210;6.838;2022-09-12T04:57:02;18.10;66.20
27492;DHT22;14927;51.210;6.838;2022-09-12T04:59:47;18.10;66.30
27492;DHT22;14927;51.210;6.838;2022-09-12T05:02:33;18.10;66.40
27492;DHT22;14927;51.210;6.838;2022-09-12T05:05:18;18.00;66.40
27492;DHT22;14927;51.210;6.838;2022-09-12T05:08:02;18.10;66.50
27492;DHT22;14927;51.210;6.838;2022-09-12T05:10:50;18.10;66.50
27492;DHT22;14927;51.210;6.838;2022-09-12T05:13:35;18.10;66.50
27492;DHT22;14927;51.210;6.838;2022-09-12T05:16:21;18.10;66.50
27492;DHT22;14927;51.210;6.838;2022-09-12T05:19:10;18.10;66.60
27492;DHT22;14927;51.210;6.838;2022-09-12T05:21:55;18.10;66.60
27492;DHT22;14927;51.210;6.838;2022-09-12T05:24:39;18.10;66.70
27492;DHT22;14927;51.210;6.838;2022-09-12T05:27:26;18.10;66.80
27492;DHT22;14927;51.210;6.838;2022-09-12T05:30:11;18.10;66.80
27492;DHT22;14927;51.210;6.838;2022-09-12T05:32:56;18.10;66.80
27492;DHT22;14927;51.210;6.838;2022-09-12T05:35:40;18.20;67.00
27492;DHT22;14927;51.210;6.838;2022-09-12T05:38:25;18.10;67.80
27492;DHT22;14927;51.210;6.838;2022-09-12T05:41:16;18.20;67.10
27492;DHT22;14927;51.210;6.838;2022-09-12T05:44:04;18.20;67.20
27492;DHT22;14927;51.210;6.838;2022-09-12T05:46:49;18.20;67.20
27492;DHT22;14927;51.210;6.838;2022-09-12T05:49:36;18.20;67.20
27492;DHT22;14927;51.210;6.838;2022-09-12T05:52:21;18.30;67.20
27492;DHT22;14927;51.210;6.838;2022-09-12T05:55:06;18.30;67.20
27492;DHT22;14927;51.210;6.838;2022-09-12T05:57:51;18.30;67.30
27492;DHT22;14927;51.210;6.838;2022-09-12T06:00:37;18.40;67.40
27492;DHT22;14927;51.210;6.838;2022-09-12T06:03:23;18.30;67.40
27492;DHT22;14927;51.210;6.838;2022-09-12T06:06:08;18.40;67.50
27492;DHT22;14927;51.210;6.838;2022-09-12T06:08:55;18.40;68.20
27492;DHT22;14927;51.210;6.838;2022-09-12T06:11:42;18.40;67.50
27492;DHT22;14927;51.210;6.838;2022-09-12T06:14:27;18.50;67.50
27492;DHT22;14927;51.210;6.838;2022-09-12T06:17:12;18.50;67.40
27492;DHT22;14927;51.210;6.838;2022-09-12T06:19:56;18.60;67.40
27492;DHT22;14927;51.210;6.838;2022-09-12T06:22:42;18.60;67.40
27492;DHT22;14927;51.210;6.838;2022-09-12T06:25:26;18.60;67.40
27492;DHT22;14927;51.210;6.838;2022-09-12T06:28:11;18.70;67.40
27492;DHT22;14927;51.210;6.838;2022-09-12T06:31:14;18.70;67.50
27492;DHT22;14927;51.210;6.838;2022-09-12T06:34:06;18.80;68.10
27492;DHT22;14927;51.210;6.838;2022-09-12T06:36:53;18.90;67.80
27492;DHT22;14927;51.210;6.838;2022-09-12T06:39:37;18.90;67.60
27492;DHT22;14927;51.210;6.838;2022-09-12T06:42:22;19.00;67.40
27492;DHT22;14927;51.210;6.838;2022-09-12T06:45:07;19.10;67.40
27492;DHT22;14927;51.210;6.838;2022-09-12T06:47:52;19.10;67.20
27492;DHT22;14927;51.210;6.838;2022-09-12T06:50:38;19.20;67.20
27492;DHT22;14927;51.210;6.838;2022-09-12T06:53:24;19.20;67.10
27492;DHT22;14927;51.210;6.838;2022-09-12T06:56:23;19.30;66.90
27492;DHT22;14927;51.210;6.838;2022-09-12T06:59:09;19.30;67.00
27492;DHT22;14927;51.210;6.838;2022-09-12T07:01:54;19.40;66.90
27492;DHT22;14927;51.210;6.838;2022-09-12T07:04:39;19.40;66.80
27492;DHT22;14927;51.210;6.838;2022-09-12T07:07:26;19.50;66.80
27492;DHT22;14927;51.210;6.838;2022-09-12T07:11:09;19.50;66.80
27492;DHT22;14927;51.210;6.838;2022-09-12T07:14:11;19.60;66.50
27492;DHT22;14927;51.210;6.838;2022-09-12T07:21:12;19.70;66.30
27492;DHT22;14927;51.210;6.838;2022-09-12T07:23:57;19.80;65.80
27492;DHT22;14927;51.210;6.838;2022-09-12T07:26:42;19.90;65.80
27492;DHT22;14927;51.210;6.838;2022-09-12T07:29:27;19.90;65.60
27492;DHT22;14927;51.210;6.838;2022-09-12T07:32:13;19.90;65.40
27492;DHT22;14927;51.210;6.838;2022-09-12T07:34:58;20.00;65.50
27492;DHT22;14927;51.210;6.838;2022-09-12T07:37:42;20.00;65.50
27492;DHT22;14927;51.210;6.838;2022-09-12T07:40:27;20.10;65.40
27492;DHT22;14927;51.210;6.838;2022-09-12T07:43:12;20.20;65.30
27492;DHT22;14927;51.210;6.838;2022-09-12T07:45:57;20.40;65.40
27492;DHT22;14927;51.210;6.838;2022-09-12T07:48:44;20.20;65.30
27492;DHT22;14927;51.210;6.838;2022-09-12T07:51:33;20.30;65.10
27492;DHT22;14927;51.210;6.838;2022-09-12T07:54:18;20.30;64.70
27492;DHT22;14927;51.210;6.838;2022-09-12T07:57:03;20.40;64.40
27492;DHT22;14927;51.210;6.838;2022-09-12T07:59:47;20.50;64.20
27492;DHT22;14927;51.210;6.838;2022-09-12T08:02:32;20.50;63.80
27492;DHT22;14927;51.210;6.838;2022-09-12T08:05:17;20.50;63.40
27492;DHT22;14927;51.210;6.838;2022-09-12T08:08:04;20.60;63.30
27492;DHT22;14927;51.210;6.838;2022-09-12T08:10:48;20.60;63.20
27492;DHT22;14927;51.210;6.838;2022-09-12T08:13:35;20.70;63.10
27492;DHT22;14927;51.210;6.838;2022-09-12T08:16:27;20.70;62.80
27492;DHT22;14927;51.210;6.838;2022-09-12T08:19:17;20.70;62.80
27492;DHT22;14927;51.210;6.838;2022-09-12T08:22:03;20.80;62.70
27492;DHT22;14927;51.210;6.838;2022-09-12T08:24:48;20.80;62.70
27492;DHT22;14927;51.210;6.838;2022-09-12T08:27:34;20.90;62.70
27492;DHT22;14927;51.210;6.838;2022-09-12T08:30:18;20.90;62.40
27492;DHT22;14927;51.210;6.838;2022-09-12T08:33:04;21.00;62.90
27492;DHT22;14927;51.210;6.838;2022-09-12T08:36:18;21.00;62.00
27492;DHT22;14927;51.210;6.838;2022-09-12T08:39:12;20.80;61.50
27492;DHT22;14927;51.210;6.838;2022-09-12T08:42:03;21.10;61.60
27492;DHT22;14927;51.210;6.838;2022-09-12T08:45:04;21.10;61.40
27492;DHT22;14927;51.210;6.838;2022-09-12T08:47:52;21.30;61.10
27492;DHT22;14927;51.210;6.838;2022-09-12T08:50:39;21.20;61.20
27492;DHT22;14927;51.210;6.838;2022-09-12T08:53:28;21.30;61.10
27492;DHT22;14927;51.210;6.838;2022-09-12T08:56:17;21.40;61.30
27492;DHT22;14927;51.210;6.838;2022-09-12T08:59:02;21.40;61.00
27492;DHT22;14927;51.210;6.838;2022-09-12T09:01:48;21.50;61.10
27492;DHT22;14927;51.210;6.838;2022-09-12T09:11:28;21.80;60.20
27492;DHT22;14927;51.210;6.838;2022-09-12T09:17:42;22.00;59.40
27492;DHT22;14927;51.210;6.838;2022-09-12T09:20:50;22.10;59.50
27492;DHT22;14927;51.210;6.838;2022-09-12T09:23:40;22.20;59.10
27492;DHT22;14927;51.210;6.838;2022-09-12T09:26:47;22.30;59.10
27492;DHT22;14927;51.210;6.838;2022-09-12T09:29:40;22.40;58.50
27492;DHT22;14927;51.210;6.838;2022-09-12T09:32:35;22.50;58.80
27492;DHT22;14927;51.210;6.838;2022-09-12T09:42:10;22.70;57.60
27492;DHT22;14927;51.210;6.838;2022-09-12T09:45:14;22.80;57.80
27492;DHT22;14927;51.210;6.838;2022-09-12T09:48:16;22.90;57.70
27492;DHT22;14927;51.210;6.838;2022-09-12T09:51:06;22.90;57.00
27492;DHT22;14927;51.210;6.838;2022-09-12T09:54:20;23.00;57.00
27492;DHT22;14927;51.210;6.838;2022-09-12T09:57:44;23.10;56.20
27492;DHT22;14927;51.210;6.838;2022-09-12T10:00:35;23.20;56.30
27492;DHT22;14927;51.210;6.838;2022-09-12T10:03:29;23.30;56.60
27492;DHT22;14927;51.210;6.838;2022-09-12T10:06:28;23.30;56.40
27492;DHT22;14927;51.210;6.838;2022-09-12T10:09:25;23.40;55.60
27492;DHT22;14927;51.210;6.838;2022-09-12T10:12:26;23.50;55.50
27492;DHT22;14927;51.210;6.838;2022-09-12T10:15:31;23.60;55.40
27492;DHT22;14927;51.210;6.838;2022-09-12T10:18:39;23.70;55.10
27492;DHT22;14927;51.210;6.838;2022-09-12T10:30:06;24.00;54.40
27492;DHT22;14927;51.210;6.838;2022-09-12T10:33:06;24.10;53.60
27492;DHT22;14927;51.210;6.838;2022-09-12T10:35:53;24.20;53.30
27492;DHT22;14927;51.210;6.838;2022-09-12T10:38:38;24.30;53.50
27492;DHT22;14927;51.210;6.838;2022-09-12T10:41:40;24.40;53.50
27492;DHT22;14927;51.210;6.838;2022-09-12T10:44:34;24.50;52.70
27492;DHT22;14927;51.210;6.838;2022-09-12T10:47:21;24.60;52.50
27492;DHT22;14927;51.210;6.838;2022-09-12T10:50:41;24.70;52.50
27492;DHT22;14927;51.210;6.838;2022-09-12T10:53:43;24.80;51.50
27492;DHT22;14927;51.210;6.838;2022-09-12T10:56:32;24.90;51.20
27492;DHT22;14927;51.210;6.838;2022-09-12T11:03:21;25.00;50.80
27492;DHT22;14927;51.210;6.838;2022-09-12T11:06:46;25.20;49.60
27492;DHT22;14927;51.210;6.838;2022-09-12T11:15:55;25.40;47.20
27492;DHT22;14927;51.210;6.838;2022-09-12T11:25:58;25.70;47.70
27492;DHT22;14927;51.210;6.838;2022-09-12T11:35:16;26.00;46.00
27492;DHT22;14927;51.210;6.838;2022-09-12T11:41:24;26.20;46.30
27492;DHT22;14927;51.210;6.838;2022-09-12T11:44:25;26.30;45.20
27492;DHT22;14927;51.210;6.838;2022-09-12T11:47:13;26.50;45.80
27492;DHT22;14927;51.210;6.838;2022-09-12T11:49:58;26.70;45.60
27492;DHT22;14927;51.210;6.838;2022-09-12T11:52:47;26.80;45.40
27492;DHT22;14927;51.210;6.838;2022-09-12T11:55:51;27.00;45.60
27492;DHT22;14927;51.210;6.838;2022-09-12T11:59:11;27.20;44.00
27492;DHT22;14927;51.210;6.838;2022-09-12T12:02:02;27.40;43.80
27492;DHT22;14927;51.210;6.838;2022-09-12T12:05:05;27.60;44.40
27492;DHT22;14927;51.210;6.838;2022-09-12T12:08:00;27.90;43.50
27492;DHT22;14927;51.210;6.838;2022-09-12T12:10:59;28.10;43.80
27492;DHT22;14927;51.210;6.838;2022-09-12T12:13:47;28.30;42.50
27492;DHT22;14927;51.210;6.838;2022-09-12T12:16:59;28.60;42.60
27492;DHT22;14927;51.210;6.838;2022-09-12T12:27:21;29.40;40.00
27492;DHT22;14927;51.210;6.838;2022-09-12T12:31:08;29.60;40.20
27492;DHT22;14927;51.210;6.838;2022-09-12T12:34:00;30.00;39.80
27492;DHT22;14927;51.210;6.838;2022-09-12T12:36:46;30.20;38.40
27492;DHT22;14927;51.210;6.838;2022-09-12T12:39:58;30.40;38.20
27492;DHT22;14927;51.210;6.838;2022-09-12T12:48:21;31.20;35.10
27492;DHT22;14927;51.210;6.838;2022-09-12T12:57:39;32.20;32.80
27492;DHT22;14927;51.210;6.838;2022-09-12T13:00:37;32.50;32.10
27492;DHT22;14927;51.210;6.838;2022-09-12T13:03:29;32.80;31.80
27492;DHT22;14927;51.210;6.838;2022-09-12T13:06:37;33.10;30.70
27492;DHT22;14927;51.210;6.838;2022-09-12T13:09:42;33.50;30.70
27492;DHT22;14927;51.210;6.838;2022-09-12T13:12:32;33.80;30.20
27492;DHT22;14927;51.210;6.838;2022-09-12T13:15:45;34.10;30.20
27492;DHT22;14927;51.210;6.838;2022-09-12T13:18:41;34.40;30.20
27492;DHT22;14927;51.210;6.838;2022-09-12T13:21:55;34.80;29.00
27492;DHT22;14927;51.210;6.838;2022-09-12T13:24:44;35.10;28.80
27492;DHT22;14927;51.210;6.838;2022-09-12T13:32:40;35.70;28.10
27492;DHT22;14927;51.210;6.838;2022-09-12T13:44:52;36.80;26.30
27492;DHT22;14927;51.210;6.838;2022-09-12T13:48:01;37.10;25.70
27492;DHT22;14927;51.210;6.838;2022-09-12T13:50:54;37.30;25.30
27492;DHT22;14927;51.210;6.838;2022-09-12T13:53:44;37.40;25.40
27492;DHT22;14927;51.210;6.838;2022-09-12T13:56:30;37.60;24.60
27492;DHT22;14927;51.210;6.838;2022-09-12T13:59:16;37.80;25.40
27492;DHT22;14927;51.210;6.838;2022-09-12T14:02:01;37.90;24.00
27492;DHT22;14927;51.210;6.838;2022-09-12T14:04:59;38.10;24.20
27492;DHT22;14927;51.210;6.838;2022-09-12T14:08:00;38.30;24.10
27492;DHT22;14927;51.210;6.838;2022-09-12T14:10:48;38.40;22.90
27492;DHT22;14927;51.210;6.838;2022-09-12T14:13:33;38.50;23.40
27492;DHT22;14927;51.210;6.838;2022-09-12T14:16:19;38.50;22.90
27492;DHT22;14927;51.210;6.838;2022-09-12T14:19:04;38.60;22.70
27492;DHT22;14927;51.210;6.838;2022-09-12T14:21:52;38.50;22.90
27492;DHT22;14927;51.210;6.838;2022-09-12T14:24:40;38.40;22.90
27492;DHT22;14927;51.210;6.838;2022-09-12T14:27:30;38.30;23.30
27492;DHT22;14927;51.210;6.838;2022-09-12T14:33:18;37.90;23.10
27492;DHT22;14927;51.210;6.838;2022-09-12T14:39:14;37.30;23.00
27492;DHT22;14927;51.210;6.838;2022-09-12T14:42:16;37.10;23.70
27492;DHT22;14927;51.210;6.838;2022-09-12T14:45:03;36.90;23.50
27492;DHT22;14927;51.210;6.838;2022-09-12T14:48:00;36.70;24.00
27492;DHT22;14927;51.210;6.838;2022-09-12T14:50:48;36.40;24.30
27492;DHT22;14927;51.210;6.838;2022-09-12T14:53:36;36.10;24.30
27492;DHT22;14927;51.210;6.838;2022-09-12T14:56:35;35.90;24.80
27492;DHT22;14927;51.210;6.838;2022-09-12T15:02:20;35.50;25.10
27492;DHT22;14927;51.210;6.838;2022-09-12T15:08:01;35.20;25.50
27492;DHT22;14927;51.210;6.838;2022-09-12T15:10:46;34.90;25.50
27492;DHT22;14927;51.210;6.838;2022-09-12T15:13:38;34.80;25.90
27492;DHT22;14927;51.210;6.838;2022-09-12T15:16:24;34.60;25.90
27492;DHT22;14927;51.210;6.838;2022-09-12T15:19:08;34.40;26.30
27492;DHT22;14927;51.210;6.838;2022-09-12T15:21:53;34.20;26.40
27492;DHT22;14927;51.210;6.838;2022-09-12T15:24:38;34.10;26.70
27492;DHT22;14927;51.210;6.838;2022-09-12T15:27:23;33.90;26.90
27492;DHT22;14927;51.210;6.838;2022-09-12T15:30:10;33.80;27.10
27492;DHT22;14927;51.210;6.838;2022-09-12T15:32:56;33.60;27.20
27492;DHT22;14927;51.210;6.838;2022-09-12T15:35:43;33.50;27.70
27492;DHT22;14927;51.210;6.838;2022-09-12T15:38:28;33.30;27.90
27492;DHT22;14927;51.210;6.838;2022-09-12T15:41:39;33.20;28.60
27492;DHT22;14927;51.210;6.838;2022-09-12T15:44:24;33.10;28.50
27492;DHT22;14927;51.210;6.838;2022-09-12T15:47:12;33.00;28.50
27492;DHT22;14927;51.210;6.838;2022-09-12T15:49:57;32.90;28.40
27492;DHT22;14927;51.210;6.838;2022-09-12T15:52:42;32.80;28.60
27492;DHT22;14927;51.210;6.838;2022-09-12T15:55:29;32.70;28.90
27492;DHT22;14927;51.210;6.838;2022-09-12T15:58:15;32.60;28.90
27492;DHT22;14927;51.210;6.838;2022-09-12T16:00:59;32.50;28.90
27492;DHT22;14927;51.210;6.838;2022-09-12T16:03:46;32.40;28.80
27492;DHT22;14927;51.210;6.838;2022-09-12T16:06:31;32.30;28.90
27492;DHT22;14927;51.210;6.838;2022-09-12T16:09:17;32.20;29.00
27492;DHT22;14927;51.210;6.838;2022-09-12T16:12:02;32.10;29.60
27492;DHT22;14927;51.210;6.838;2022-09-12T16:14:47;32.00;29.40
27492;DHT22;14927;51.210;6.838;2022-09-12T16:17:31;32.00;29.60
27492;DHT22;14927;51.210;6.838;2022-09-12T16:20:16;31.80;29.50
27492;DHT22;14927;51.210;6.838;2022-09-12T16:23:02;31.70;29.80
27492;DHT22;14927;51.210;6.838;2022-09-12T16:26:05;31.70;29.90
27492;DHT22;14927;51.210;6.838;2022-09-12T16:28:57;31.60;30.10
27492;DHT22;14927;51.210;6.838;2022-09-12T16:31:42;31.50;30.20
27492;DHT22;14927;51.210;6.838;2022-09-12T16:34:26;31.50;30.50
27492;DHT22;14927;51.210;6.838;2022-09-12T16:37:11;31.30;30.50
27492;DHT22;14927;51.210;6.838;2022-09-12T16:39:56;31.30;30.60
27492;DHT22;14927;51.210;6.838;2022-09-12T16:42:41;31.20;30.60
27492;DHT22;14927;51.210;6.838;2022-09-12T16:45:25;31.20;31.00
27492;DHT22;14927;51.210;6.838;2022-09-12T16:48:10;31.10;31.00
27492;DHT22;14927;51.210;6.838;2022-09-12T16:50:56;31.10;31.20
27492;DHT22;14927;51.210;6.838;2022-09-12T16:53:47;31.00;31.50
27492;DHT22;14927;51.210;6.838;2022-09-12T16:56:32;30.90;31.70
27492;DHT22;14927;51.210;6.838;2022-09-12T16:59:17;30.90;31.80
27492;DHT22;14927;51.210;6.838;2022-09-12T17:02:02;30.80;32.10
27492;DHT22;14927;51.210;6.838;2022-09-12T17:04:47;30.80;32.40
27492;DHT22;14927;51.210;6.838;2022-09-12T17:07:31;30.70;33.20
27492;DHT22;14927;51.210;6.838;2022-09-12T17:10:17;30.70;32.90
27492;DHT22;14927;51.210;6.838;2022-09-12T17:13:02;30.60;33.30
27492;DHT22;14927;51.210;6.838;2022-09-12T17:15:46;30.50;33.40
27492;DHT22;14927;51.210;6.838;2022-09-12T17:18:31;30.40;33.50
27492;DHT22;14927;51.210;6.838;2022-09-12T17:21:16;30.40;34.30
27492;DHT22;14927;51.210;6.838;2022-09-12T17:24:02;30.30;34.40
27492;DHT22;14927;51.210;6.838;2022-09-12T17:26:48;30.20;34.50
27492;DHT22;14927;51.210;6.838;2022-09-12T17:29:32;30.20;34.50
27492;DHT22;14927;51.210;6.838;2022-09-12T17:32:18;30.10;34.60
27492;DHT22;14927;51.210;6.838;2022-09-12T17:35:04;29.90;34.80
27492;DHT22;14927;51.210;6.838;2022-09-12T17:37:50;29.90;35.20
27492;DHT22;14927;51.210;6.838;2022-09-12T17:40:35;29.80;35.20
27492;DHT22;14927;51.210;6.838;2022-09-12T17:43:19;29.70;35.50
27492;DHT22;14927;51.210;6.838;2022-09-12T17:46:04;29.60;35.60
27492;DHT22;14927;51.210;6.838;2022-09-12T17:48:56;29.50;35.90
27492;DHT22;14927;51.210;6.838;2022-09-12T17:51:47;29.50;36.30
27492;DHT22;14927;51.210;6.838;2022-09-12T17:54:32;29.40;36.30
27492;DHT22;14927;51.210;6.838;2022-09-12T17:57:17;29.30;36.50
27492;DHT22;14927;51.210;6.838;2022-09-12T18:00:02;29.20;36.80
27492;DHT22;14927;51.210;6.838;2022-09-12T18:02:47;29.10;36.80
27492;DHT22;14927;51.210;6.838;2022-09-12T18:05:33;29.00;37.00
27492;DHT22;14927;51.210;6.838;2022-09-12T18:08:22;28.90;37.20
27492;DHT22;14927;51.210;6.838;2022-09-12T18:11:07;28.80;37.30
27492;DHT22;14927;51.210;6.838;2022-09-12T18:13:52;28.70;37.50
27492;DHT22;14927;51.210;6.838;2022-09-12T18:16:36;28.60;37.60
27492;DHT22;14927;51.210;6.838;2022-09-12T18:19:22;28.50;37.70
27492;DHT22;14927;51.210;6.838;2022-09-12T18:22:07;28.50;38.00
27492;DHT22;14927;51.210;6.838;2022-09-12T18:24:52;28.40;38.10
27492;DHT22;14927;51.210;6.838;2022-09-12T18:27:37;28.30;38.30
27492;DHT22;14927;51.210;6.838;2022-09-12T18:30:22;28.20;38.40
27492;DHT22;14927;51.210;6.838;2022-09-12T18:33:07;28.10;38.60
27492;DHT22;14927;51.210;6.838;2022-09-12T18:35:52;28.00;38.80
27492;DHT22;14927;51.210;6.838;2022-09-12T18:38:37;28.00;39.10
27492;DHT22;14927;51.210;6.838;2022-09-12T18:41:23;27.90;39.30
27492;DHT22;14927;51.210;6.838;2022-09-12T18:44:11;27.80;39.40
27492;DHT22;14927;51.210;6.838;2022-09-12T18:46:56;27.70;40.10
27492;DHT22;14927;51.210;6.838;2022-09-12T18:49:41;27.60;40.40
27492;DHT22;14927;51.210;6.838;2022-09-12T18:52:26;27.50;40.70
27492;DHT22;14927;51.210;6.838;2022-09-12T18:55:11;27.50;40.90
27492;DHT22;14927;51.210;6.838;2022-09-12T18:57:56;27.40;41.20
27492;DHT22;14927;51.210;6.838;2022-09-12T19:00:41;27.30;41.40
27492;DHT22;14927;51.210;6.838;2022-09-12T19:03:27;27.20;41.50
27492;DHT22;14927;51.210;6.838;2022-09-12T19:06:18;27.20;41.70
27492;DHT22;14927;51.210;6.838;2022-09-12T19:09:12;27.10;41.80
27492;DHT22;14927;51.210;6.838;2022-09-12T19:12:06;27.00;41.80
27492;DHT22;14927;51.210;6.838;2022-09-12T19:14:50;27.00;42.20
27492;DHT22;14927;51.210;6.838;2022-09-12T19:17:35;26.90;42.20
27492;DHT22;14927;51.210;6.838;2022-09-12T19:20:20;26.80;42.20
27492;DHT22;14927;51.210;6.838;2022-09-12T19:23:05;26.80;42.40
27492;DHT22;14927;51.210;6.838;2022-09-12T19:26:04;26.80;42.60
27492;DHT22;14927;51.210;6.838;2022-09-12T19:28:51;26.70;42.70
27492;DHT22;14927;51.210;6.838;2022-09-12T19:31:37;26.60;42.70
27492;DHT22;14927;51.210;6.838;2022-09-12T19:34:22;26.60;42.80
27492;DHT22;14927;51.210;6.838;2022-09-12T19:37:06;26.60;43.20
27492;DHT22;14927;51.210;6.838;2022-09-12T19:39:54;26.50;43.50
27492;DHT22;14927;51.210;6.838;2022-09-12T19:42:38;26.40;43.50
27492;DHT22;14927;51.210;6.838;2022-09-12T19:45:23;26.40;43.60
27492;DHT22;14927;51.210;6.838;2022-09-12T19:48:07;26.30;43.60
27492;DHT22;14927;51.210;6.838;2022-09-12T19:51:02;26.20;43.70
27492;DHT22;14927;51.210;6.838;2022-09-12T19:53:47;26.20;44.00
27492;DHT22;14927;51.210;6.838;2022-09-12T19:56:33;26.10;43.90
27492;DHT22;14927;51.210;6.838;2022-09-12T19:59:17;26.10;44.00
27492;DHT22;14927;51.210;6.838;2022-09-12T20:02:02;26.00;44.30
27492;DHT22;14927;51.210;6.838;2022-09-12T20:04:47;26.00;44.50
27492;DHT22;14927;51.210;6.838;2022-09-12T20:07:32;25.90;44.40
27492;DHT22;14927;51.210;6.838;2022-09-12T20:10:18;25.90;44.50